APG8975 RPLL-RPVB
Flight info
| Callsign | APG8975 |
|---|---|
| Flight time | 0h 48m |
| Altitude | 29000 |
| Route | VERDE2V VERDE W24 TAPER B472 LAMBO LAMBO3P |
| Aircraft | A320/M-SDE3FGHIRWY/LB1 |
Departure
| Time | 2026-04-30 19:19 |
|---|---|
| Airport | Ninoy Aquino International Airport (RPLL) |
Arrival
| Time | 2026-04-30 20:07 |
|---|---|
| Airport | Bacolod-Silay International Airport (RPVB) |
| Time | Latitude | Longitude | Altitude | Speed | Heading |
|---|---|---|---|---|---|
| 2026-04-30 19:14 | 14.52495 | 121.00219 | 69 ft | 0 kts | 255° |
| 2026-04-30 19:15 | 14.52495 | 121.00221 | 69 ft | 2 kts | 255° |
| 2026-04-30 19:15 | 14.52507 | 121.00253 | 72 ft | 3 kts | 219° |
| 2026-04-30 19:15 | 14.52516 | 121.00259 | 59 ft | 2 kts | 205° |
| 2026-04-30 19:16 | 14.52523 | 121.00263 | 61 ft | 0 kts | 194° |
| 2026-04-30 19:17 | 14.52500 | 121.00269 | 62 ft | 8 kts | 151° |
| 2026-04-30 19:18 | 14.52361 | 121.00402 | 65 ft | 24 kts | 134° |
| 2026-04-30 19:18 | 14.52224 | 121.00547 | 64 ft | 39 kts | 135° |
| 2026-04-30 19:18 | 14.51854 | 121.00931 | 60 ft | 108 kts | 135° |
| 2026-04-30 19:19 | 14.51202 | 121.01608 | 114 ft | 154 kts | 134° |
| 2026-04-30 19:19 | 14.50417 | 121.02345 | 794 ft | 148 kts | 136° |
| 2026-04-30 19:19 | 14.48963 | 121.03851 | 1981 ft | 157 kts | 131° |
| 2026-04-30 19:20 | 14.48152 | 121.04714 | 2296 ft | 178 kts | 131° |
| 2026-04-30 19:20 | 14.47238 | 121.05678 | 2520 ft | 199 kts | 131° |
| 2026-04-30 19:20 | 14.45095 | 121.07802 | 3131 ft | 238 kts | 145° |
| 2026-04-30 19:21 | 14.43425 | 121.08302 | 3526 ft | 266 kts | 176° |
| 2026-04-30 19:21 | 14.39628 | 121.08112 | 5037 ft | 278 kts | 180° |
| 2026-04-30 19:22 | 14.35725 | 121.07872 | 6588 ft | 284 kts | 181° |
| 2026-04-30 19:22 | 14.29716 | 121.07527 | 8827 ft | 292 kts | 180° |
| 2026-04-30 19:23 | 14.23439 | 121.07186 | 10339 ft | 326 kts | 181° |
| 2026-04-30 19:24 | 14.18699 | 121.06929 | 11130 ft | 349 kts | 181° |
| 2026-04-30 19:24 | 14.16258 | 121.06793 | 11725 ft | 353 kts | 181° |
| 2026-04-30 19:24 | 14.11286 | 121.06517 | 12911 ft | 362 kts | 181° |
| 2026-04-30 19:25 | 14.03630 | 121.06092 | 14557 ft | 372 kts | 182° |
| 2026-04-30 19:26 | 13.98427 | 121.05805 | 15630 ft | 377 kts | 182° |
| 2026-04-30 19:26 | 13.93150 | 121.05519 | 16684 ft | 382 kts | 182° |
| 2026-04-30 19:26 | 13.90487 | 121.05373 | 17204 ft | 385 kts | 182° |
| 2026-04-30 19:27 | 13.85094 | 121.05076 | 18216 ft | 390 kts | 182° |
| 2026-04-30 19:27 | 13.79636 | 121.04777 | 19093 ft | 395 kts | 182° |
| 2026-04-30 19:28 | 13.76877 | 121.04626 | 19540 ft | 398 kts | 182° |
| 2026-04-30 19:28 | 13.71349 | 121.04321 | 20430 ft | 402 kts | 182° |
| 2026-04-30 19:29 | 13.65731 | 121.04011 | 21324 ft | 407 kts | 182° |
| 2026-04-30 19:29 | 13.62896 | 121.03857 | 21767 ft | 409 kts | 182° |
| 2026-04-30 19:30 | 13.54296 | 121.03464 | 23036 ft | 415 kts | 176° |
| 2026-04-30 19:30 | 13.48669 | 121.04768 | 23745 ft | 418 kts | 156° |
| 2026-04-30 19:31 | 13.43686 | 121.07875 | 24370 ft | 422 kts | 146° |
| 2026-04-30 19:31 | 13.41253 | 121.09589 | 24683 ft | 424 kts | 146° |
| 2026-04-30 19:31 | 13.36356 | 121.13033 | 25293 ft | 429 kts | 146° |
| 2026-04-30 19:32 | 13.33885 | 121.14768 | 25594 ft | 431 kts | 146° |
| 2026-04-30 19:32 | 13.31436 | 121.16484 | 25886 ft | 433 kts | 146° |
| 2026-04-30 19:32 | 13.28947 | 121.18225 | 26178 ft | 435 kts | 146° |
| 2026-04-30 19:32 | 13.26436 | 121.19981 | 26458 ft | 437 kts | 146° |
| 2026-04-30 19:33 | 13.23918 | 121.21746 | 26728 ft | 439 kts | 146° |
| 2026-04-30 19:33 | 13.21394 | 121.23518 | 26995 ft | 441 kts | 146° |
| 2026-04-30 19:33 | 13.18852 | 121.25303 | 27264 ft | 443 kts | 146° |
| 2026-04-30 19:33 | 13.16298 | 121.27096 | 27532 ft | 445 kts | 146° |
| 2026-04-30 19:34 | 13.13738 | 121.28893 | 27797 ft | 447 kts | 146° |
| 2026-04-30 19:34 | 13.11162 | 121.30700 | 28065 ft | 449 kts | 146° |
| 2026-04-30 19:34 | 13.05989 | 121.34327 | 28620 ft | 452 kts | 147° |
| 2026-04-30 19:35 | 13.03380 | 121.36150 | 28855 ft | 453 kts | 147° |
| 2026-04-30 19:35 | 12.98254 | 121.39730 | 28926 ft | 435 kts | 147° |
| 2026-04-30 19:36 | 12.93317 | 121.43183 | 28923 ft | 430 kts | 147° |
| 2026-04-30 19:36 | 12.85896 | 121.48376 | 28922 ft | 429 kts | 147° |
| 2026-04-30 19:37 | 12.80965 | 121.51822 | 28917 ft | 429 kts | 147° |
| 2026-04-30 19:37 | 12.76028 | 121.55264 | 28908 ft | 428 kts | 147° |
| 2026-04-30 19:38 | 12.71102 | 121.58698 | 28906 ft | 428 kts | 147° |
| 2026-04-30 19:38 | 12.66179 | 121.62134 | 28902 ft | 428 kts | 147° |
| 2026-04-30 19:39 | 12.61259 | 121.65568 | 28902 ft | 428 kts | 147° |
| 2026-04-30 19:39 | 12.56343 | 121.68989 | 28900 ft | 427 kts | 147° |
| 2026-04-30 19:40 | 12.51455 | 121.72394 | 28900 ft | 427 kts | 147° |
| 2026-04-30 19:40 | 12.46543 | 121.75812 | 28902 ft | 426 kts | 147° |
| 2026-04-30 19:41 | 12.41638 | 121.79223 | 28898 ft | 426 kts | 147° |
| 2026-04-30 19:41 | 12.36738 | 121.82562 | 28892 ft | 425 kts | 152° |
| 2026-04-30 19:42 | 12.31349 | 121.85033 | 28886 ft | 424 kts | 157° |
| 2026-04-30 19:42 | 12.25923 | 121.87399 | 28883 ft | 424 kts | 157° |
| 2026-04-30 19:43 | 12.21412 | 121.89365 | 28883 ft | 424 kts | 157° |
| 2026-04-30 19:44 | 12.13281 | 121.92915 | 28883 ft | 423 kts | 157° |
| 2026-04-30 19:44 | 12.07860 | 121.95278 | 28886 ft | 423 kts | 157° |
| 2026-04-30 19:45 | 12.02448 | 121.97638 | 28886 ft | 422 kts | 157° |
| 2026-04-30 19:45 | 11.97040 | 122.00001 | 28887 ft | 422 kts | 157° |
| 2026-04-30 19:46 | 11.91641 | 122.02349 | 28888 ft | 422 kts | 157° |
| 2026-04-30 19:46 | 11.86238 | 122.04701 | 28884 ft | 422 kts | 156° |
| 2026-04-30 19:47 | 11.80842 | 122.07052 | 28884 ft | 421 kts | 156° |
| 2026-04-30 19:47 | 11.78485 | 122.08077 | 28885 ft | 421 kts | 156° |
| 2026-04-30 19:48 | 11.73134 | 122.10416 | 28875 ft | 421 kts | 156° |
| 2026-04-30 19:48 | 11.70455 | 122.11579 | 28402 ft | 417 kts | 156° |
| 2026-04-30 19:48 | 11.67790 | 122.12733 | 27887 ft | 414 kts | 156° |
| 2026-04-30 19:48 | 11.65151 | 122.13874 | 27392 ft | 410 kts | 156° |
| 2026-04-30 19:49 | 11.62534 | 122.15004 | 26910 ft | 406 kts | 156° |
| 2026-04-30 19:49 | 11.57372 | 122.17238 | 25972 ft | 400 kts | 156° |
| 2026-04-30 19:49 | 11.54817 | 122.18346 | 25511 ft | 397 kts | 155° |
| 2026-04-30 19:50 | 11.52274 | 122.19452 | 25062 ft | 395 kts | 155° |
| 2026-04-30 19:50 | 11.49747 | 122.20552 | 24605 ft | 394 kts | 156° |
| 2026-04-30 19:50 | 11.47242 | 122.21644 | 24146 ft | 392 kts | 155° |
| 2026-04-30 19:50 | 11.44719 | 122.22744 | 23685 ft | 391 kts | 155° |
| 2026-04-30 19:51 | 11.42222 | 122.23830 | 23163 ft | 390 kts | 155° |
| 2026-04-30 19:51 | 11.39757 | 122.24896 | 22686 ft | 388 kts | 155° |
| 2026-04-30 19:51 | 11.37253 | 122.25974 | 22203 ft | 385 kts | 155° |
| 2026-04-30 19:51 | 11.34812 | 122.27028 | 21735 ft | 384 kts | 155° |
| 2026-04-30 19:52 | 11.32357 | 122.28091 | 21259 ft | 382 kts | 155° |
| 2026-04-30 19:52 | 11.29921 | 122.29151 | 20785 ft | 380 kts | 155° |
| 2026-04-30 19:52 | 11.27488 | 122.30205 | 20309 ft | 379 kts | 154° |
| 2026-04-30 19:52 | 11.25066 | 122.31256 | 19830 ft | 377 kts | 155° |
| 2026-04-30 19:53 | 11.22657 | 122.32300 | 19358 ft | 376 kts | 155° |
| 2026-04-30 19:53 | 11.20255 | 122.33341 | 18888 ft | 375 kts | 154° |
| 2026-04-30 19:53 | 11.17869 | 122.34375 | 18670 ft | 367 kts | 154° |
| 2026-04-30 19:53 | 11.15601 | 122.35457 | 18550 ft | 353 kts | 147° |
| 2026-04-30 19:54 | 11.13520 | 122.36722 | 18406 ft | 344 kts | 146° |
| 2026-04-30 19:54 | 11.11480 | 122.37965 | 18100 ft | 340 kts | 146° |
| 2026-04-30 19:54 | 11.09463 | 122.39198 | 17664 ft | 335 kts | 146° |
| 2026-04-30 19:54 | 11.07468 | 122.40418 | 16956 ft | 332 kts | 146° |
| 2026-04-30 19:55 | 11.05502 | 122.41619 | 16294 ft | 330 kts | 146° |
| 2026-04-30 19:55 | 11.03533 | 122.42824 | 15655 ft | 327 kts | 146° |
| 2026-04-30 19:55 | 11.01592 | 122.44012 | 15037 ft | 324 kts | 146° |
| 2026-04-30 19:55 | 10.99670 | 122.45185 | 14454 ft | 320 kts | 146° |
| 2026-04-30 19:56 | 10.97796 | 122.46327 | 13963 ft | 315 kts | 146° |
| 2026-04-30 19:56 | 10.95922 | 122.47470 | 13467 ft | 312 kts | 146° |
| 2026-04-30 19:56 | 10.94066 | 122.48603 | 12980 ft | 309 kts | 146° |
| 2026-04-30 19:56 | 10.92218 | 122.49730 | 12520 ft | 311 kts | 146° |
| 2026-04-30 19:57 | 10.90378 | 122.50852 | 12213 ft | 307 kts | 146° |
| 2026-04-30 19:57 | 10.88556 | 122.52008 | 11808 ft | 305 kts | 140° |
| 2026-04-30 19:57 | 10.87026 | 122.53431 | 11325 ft | 295 kts | 127° |
| 2026-04-30 19:57 | 10.85795 | 122.55070 | 10745 ft | 290 kts | 124° |
| 2026-04-30 19:58 | 10.84593 | 122.56692 | 10284 ft | 285 kts | 124° |
| 2026-04-30 19:58 | 10.83404 | 122.58286 | 9856 ft | 282 kts | 125° |
| 2026-04-30 19:58 | 10.82221 | 122.59866 | 9482 ft | 279 kts | 125° |
| 2026-04-30 19:58 | 10.81045 | 122.61438 | 9092 ft | 278 kts | 124° |
| 2026-04-30 19:59 | 10.79870 | 122.63014 | 8679 ft | 280 kts | 124° |
| 2026-04-30 19:59 | 10.78700 | 122.64584 | 8257 ft | 279 kts | 124° |
| 2026-04-30 19:59 | 10.76355 | 122.67725 | 7428 ft | 278 kts | 124° |
| 2026-04-30 20:00 | 10.75190 | 122.69285 | 7047 ft | 276 kts | 124° |
| 2026-04-30 20:00 | 10.74038 | 122.70823 | 6625 ft | 276 kts | 125° |
| 2026-04-30 20:00 | 10.72859 | 122.72394 | 6280 ft | 273 kts | 124° |
| 2026-04-30 20:00 | 10.71703 | 122.73933 | 5853 ft | 273 kts | 124° |
| 2026-04-30 20:01 | 10.69424 | 122.76967 | 5012 ft | 272 kts | 125° |
| 2026-04-30 20:01 | 10.68285 | 122.78486 | 4640 ft | 268 kts | 125° |
| 2026-04-30 20:01 | 10.67160 | 122.80000 | 4236 ft | 266 kts | 122° |
| 2026-04-30 20:02 | 10.65966 | 122.83460 | 3378 ft | 260 kts | 91° |
| 2026-04-30 20:02 | 10.65916 | 122.85246 | 3277 ft | 245 kts | 91° |
| 2026-04-30 20:03 | 10.65791 | 122.88527 | 3084 ft | 221 kts | 91° |
| 2026-04-30 20:03 | 10.65727 | 122.90071 | 2985 ft | 216 kts | 91° |
| 2026-04-30 20:03 | 10.65665 | 122.91559 | 2875 ft | 205 kts | 91° |
| 2026-04-30 20:03 | 10.65629 | 122.92980 | 2752 ft | 199 kts | 84° |
| 2026-04-30 20:04 | 10.65972 | 122.94326 | 2511 ft | 196 kts | 64° |
| 2026-04-30 20:04 | 10.66758 | 122.95430 | 2345 ft | 191 kts | 45° |
| 2026-04-30 20:04 | 10.67826 | 122.96177 | 2090 ft | 186 kts | 32° |
| 2026-04-30 20:05 | 10.69948 | 122.97410 | 1648 ft | 159 kts | 32° |
| 2026-04-30 20:05 | 10.70867 | 122.97945 | 1443 ft | 144 kts | 31° |
| 2026-04-30 20:05 | 10.72562 | 122.98935 | 1091 ft | 139 kts | 32° |
| 2026-04-30 20:06 | 10.73402 | 122.99425 | 916 ft | 139 kts | 30° |
| 2026-04-30 20:06 | 10.74239 | 122.99913 | 740 ft | 140 kts | 31° |
| 2026-04-30 20:06 | 10.75081 | 123.00405 | 547 ft | 139 kts | 31° |
| 2026-04-30 20:06 | 10.75921 | 123.00894 | 365 ft | 139 kts | 31° |
| 2026-04-30 20:07 | 10.76758 | 123.01376 | 157 ft | 137 kts | 28° |
| 2026-04-30 20:07 | 10.77544 | 123.01835 | 86 ft | 113 kts | 32° |
| 2026-04-30 20:07 | 10.78224 | 123.02237 | 86 ft | 44 kts | 30° |
| 2026-04-30 20:08 | 10.78402 | 123.02310 | 86 ft | 22 kts | 0° |
| 2026-04-30 20:08 | 10.78424 | 123.02350 | 84 ft | 7 kts | 173° |
| 2026-04-30 20:08 | 10.78347 | 123.02307 | 85 ft | 18 kts | 210° |
| 2026-04-30 20:08 | 10.78208 | 123.02227 | 88 ft | 28 kts | 210° |
| 2026-04-30 20:09 | 10.78016 | 123.02114 | 89 ft | 36 kts | 210° |
| 2026-04-30 20:09 | 10.77773 | 123.01971 | 88 ft | 44 kts | 210° |
| 2026-04-30 20:09 | 10.77751 | 123.01746 | 88 ft | 19 kts | 286° |
| 2026-04-30 20:10 | 10.77615 | 123.01619 | 85 ft | 18 kts | 209° |
| 2026-04-30 20:10 | 10.77563 | 123.01579 | 87 ft | 0 kts | 258° |
| 2026-04-30 20:10 | 10.77571 | 123.01569 | 85 ft | 3 kts | 305° |
| 2026-04-30 20:11 | 10.77598 | 123.01522 | 85 ft | 0 kts | 299° |